Time;durP1;ratioP1;P1;durP2;ratioP2;P2;SDS_P1;SDS_P2;PMS_P1;PMS_P2;Temp;Humidity;BMP_temperature;BMP_pressure;BME280_temperature;BME280_humidity;BME280_pressure;Samples;Min_cycle;Max_cycle;Signal;HPM_P1;HPM_P2
2022/04/24 00:01:11;;;;;;;10.63;6.35;;;;;;;8.19;84.92;100715.59;5050962;28;20725;-71
2022/04/24 00:03:36;;;;;;;9.95;6.22;;;;;;;8.15;84.49;100714.84;5049169;28;20864;-71
2022/04/24 00:06:02;;;;;;;11.85;6.88;;;;;;;8.11;84.18;100715.00;5048958;28;20778;-71
2022/04/24 00:08:28;;;;;;;10.23;6.28;;;;;;;8.08;83.82;100715.13;5051195;28;20094;-72
2022/04/24 00:10:53;;;;;;;9.82;6.35;;;;;;;8.05;84.17;100721.38;5050205;28;20044;-71
2022/04/24 00:13:19;;;;;;;10.05;5.93;;;;;;;8.04;84.10;100718.78;5050951;28;20032;-71
2022/04/24 00:15:45;;;;;;;10.77;5.63;;;;;;;8.00;83.76;100711.00;5050701;28;20073;-71
2022/04/24 00:18:10;;;;;;;10.02;5.47;;;;;;;7.98;84.35;100711.97;5049243;28;20484;-72
2022/04/24 00:20:36;;;;;;;10.35;5.68;;;;;;;7.94;84.04;100712.97;5050366;28;20376;-71
2022/04/24 00:23:01;;;;;;;9.57;5.78;;;;;;;7.92;83.95;100710.41;5050667;28;20035;-72
2022/04/24 00:25:27;;;;;;;9.05;5.82;;;;;;;7.87;84.26;100712.34;5049546;28;20506;-71
2022/04/24 00:27:52;;;;;;;9.30;5.97;;;;;;;7.85;84.71;100717.69;5051272;28;20036;-72
2022/04/24 00:30:18;;;;;;;10.80;5.35;;;;;;;7.83;84.25;100710.72;5050402;28;20097;-71
2022/04/24 00:32:43;;;;;;;10.90;5.97;;;;;;;7.79;84.03;100712.63;5049397;28;20060;-71
2022/04/24 00:35:09;;;;;;;8.35;5.43;;;;;;;7.77;84.17;100706.56;5050749;28;20044;-72
2022/04/24 00:37:34;;;;;;;8.10;5.13;;;;;;;7.75;84.30;100714.50;5050487;28;20303;-71
2022/04/24 00:40:00;;;;;;;10.57;5.60;;;;;;;7.72;84.91;100712.00;5048772;28;20037;-71
2022/04/24 00:42:25;;;;;;;8.65;5.32;;;;;;;7.72;84.52;100709.34;5049922;28;20033;-71
2022/04/24 00:44:51;;;;;;;7.82;5.32;;;;;;;7.72;84.96;100711.13;5050587;28;20029;-71
2022/04/24 00:47:18;;;;;;;8.50;5.57;;;;;;;7.68;84.67;100705.09;5050704;28;20139;-70
2022/04/24 00:49:45;;;;;;;9.50;5.78;;;;;;;7.69;84.58;100717.34;5049362;28;20043;-70
2022/04/24 00:52:11;;;;;;;8.63;5.55;;;;;;;7.67;84.91;100721.00;5048657;28;20047;-70
2022/04/24 00:54:37;;;;;;;10.40;5.68;;;;;;;7.65;85.15;100710.50;5048351;28;20116;-71
2022/04/24 00:57:06;;;;;;;8.90;5.55;;;;;;;7.62;85.40;100710.59;5048998;28;20125;-71
2022/04/24 00:59:31;;;;;;;9.02;5.43;;;;;;;7.58;85.38;100704.56;5050259;28;20560;-70
2022/04/24 01:01:59;;;;;;;12.05;5.88;;;;;;;7.55;85.08;100707.31;5050363;28;20028;-71
2022/04/24 01:04:24;;;;;;;9.10;5.28;;;;;;;7.52;85.00;100703.94;5048308;28;20104;-72
2022/04/24 01:06:50;;;;;;;8.43;5.53;;;;;;;7.47;85.60;100707.56;5048608;28;20046;-71
2022/04/24 01:09:21;;;;;;;9.73;5.55;;;;;;;7.44;85.20;100709.47;5047725;28;20048;-71
2022/04/24 01:11:52;;;;;;;10.63;5.43;;;;;;;7.41;85.59;100701.69;5033571;28;20458;-71
2022/04/24 01:14:19;;;;;;;10.73;5.70;;;;;;;7.39;85.94;100714.00;5052414;28;20036;-71
2022/04/24 01:16:46;;;;;;;8.43;5.22;;;;;;;7.36;86.77;100709.75;5052511;28;20531;-71
2022/04/24 01:19:12;;;;;;;7.90;5.30;;;;;;;7.33;86.70;100713.34;5052577;28;20025;-71
2022/04/24 01:21:40;;;;;;;7.78;5.35;;;;;;;7.32;87.63;100714.22;5052246;28;20036;-72
2022/04/24 01:24:07;;;;;;;9.13;5.13;;;;;;;7.30;86.84;100707.31;5053021;28;20043;-72
2022/04/24 01:26:33;;;;;;;8.20;5.30;;;;;;;7.27;86.55;100708.28;5052881;28;20506;-72
2022/04/24 01:28:59;;;;;;;8.38;5.13;;;;;;;7.24;86.57;100704.88;5030308;28;20032;-71
2022/04/24 01:31:24;;;;;;;8.95;5.32;;;;;;;7.20;86.84;100704.13;5051903;28;20021;-71
2022/04/24 01:33:50;;;;;;;10.43;5.60;;;;;;;7.17;86.65;100707.72;5052197;28;20120;-71
2022/04/24 01:36:15;;;;;;;8.80;5.13;;;;;;;7.14;86.53;100697.28;5053450;28;20283;-71
2022/04/24 01:38:41;;;;;;;7.93;5.22;;;;;;;7.11;86.15;100707.03;5053286;28;20230;-71
2022/04/24 01:41:07;;;;;;;6.95;4.95;;;;;;;7.07;86.52;100709.78;5051860;28;20487;-72
2022/04/24 01:43:33;;;;;;;9.75;5.50;;;;;;;7.06;88.07;100704.56;5053778;28;20264;-71
2022/04/24 01:45:58;;;;;;;8.38;4.97;;;;;;;7.05;87.87;100716.88;5053614;28;20088;-71
2022/04/24 01:48:24;;;;;;;7.68;5.28;;;;;;;7.05;88.82;100708.13;5052178;28;20558;-71
2022/04/24 01:50:54;;;;;;;7.85;5.07;;;;;;;7.03;88.76;100708.16;5051689;28;20100;-71
2022/04/24 01:53:19;;;;;;;7.88;5.25;;;;;;;7.01;87.90;100704.72;5053573;28;20039;-71
2022/04/24 01:55:46;;;;;;;8.75;5.20;;;;;;;6.99;87.84;100703.94;5068517;28;20032;-71
2022/04/24 01:58:11;;;;;;;8.50;5.00;;;;;;;6.97;87.58;100708.34;5054301;28;20044;-70
2022/04/24 02:00:37;;;;;;;8.75;5.75;;;;;;;6.95;87.65;100704.06;5052998;28;20032;-70
2022/04/24 02:03:02;;;;;;;8.15;5.28;;;;;;;6.91;87.51;100709.44;5053720;28;20183;-71
2022/04/24 02:05:28;;;;;;;8.77;5.60;;;;;;;6.88;87.75;100704.28;5031027;28;20039;-70
2022/04/24 02:07:53;;;;;;;8.30;5.07;;;;;;;6.85;87.55;100704.38;5051462;28;20767;-70
2022/04/24 02:10:19;;;;;;;7.88;5.13;;;;;;;6.84;87.50;100702.66;5052699;28;20079;-71
2022/04/24 02:12:44;;;;;;;11.25;5.50;;;;;;;6.83;88.00;100706.19;5052425;28;20314;-71
2022/04/24 02:15:10;;;;;;;8.48;5.20;;;;;;;6.85;88.45;100712.25;5051271;28;20074;-71
2022/04/24 02:17:35;;;;;;;8.73;5.30;;;;;;;6.87;88.76;100713.06;5051658;28;20044;-70
2022/04/24 02:20:02;;;;;;;9.38;5.55;;;;;;;6.88;88.33;100712.19;5053063;28;20263;-71
2022/04/24 02:22:34;;;;;;;10.10;5.03;;;;;;;6.89;88.79;100713.03;5030257;28;21022;-71
2022/04/24 02:25:00;;;;;;;7.68;5.00;;;;;;;6.90;88.07;100710.34;5050063;28;20039;-70
2022/04/24 02:27:26;;;;;;;10.23;5.78;;;;;;;6.90;88.50;100702.44;5051680;28;20055;-71
2022/04/24 02:29:52;;;;;;;6.50;4.88;;;;;;;6.90;88.34;100702.44;5051105;28;20037;-71
2022/04/24 02:32:17;;;;;;;8.45;5.15;;;;;;;6.91;88.51;100693.63;5053264;28;20451;-71
2022/04/24 02:34:43;;;;;;;8.98;5.70;;;;;;;6.90;88.62;100693.69;5050952;28;20514;-71
2022/04/24 02:37:08;;;;;;;8.10;5.43;;;;;;;6.89;88.71;100707.75;5052468;28;20037;-71
2022/04/24 02:39:35;;;;;;;9.07;4.82;;;;;;;6.86;88.58;100711.34;5035198;28;20033;-71
2022/04/24 02:42:01;;;;;;;8.82;5.28;;;;;;;6.85;88.59;100701.72;5052913;28;20025;-71
2022/04/24 02:44:26;;;;;;;8.68;5.60;;;;;;;6.84;88.92;100705.28;5051560;28;20055;-71
2022/04/24 02:46:52;;;;;;;9.02;5.60;;;;;;;6.84;89.03;100702.66;5051298;28;20113;-71
2022/04/24 02:49:18;;;;;;;9.13;5.40;;;;;;;6.83;88.82;100700.94;5052501;28;20483;-72
2022/04/24 02:51:44;;;;;;;10.38;5.53;;;;;;;6.82;89.37;100701.84;5051984;28;20062;-71
2022/04/24 02:54:10;;;;;;;10.88;5.45;;;;;;;6.82;88.79;100696.56;5050702;28;20111;-72
2022/04/24 02:56:35;;;;;;;9.57;5.70;;;;;;;6.80;88.85;100695.75;5051071;28;20037;-72
2022/04/24 02:59:01;;;;;;;8.90;5.05;;;;;;;6.78;88.93;100706.34;5052151;28;20037;-71
2022/04/24 03:01:26;;;;;;;9.90;5.35;;;;;;;6.79;89.38;100699.28;5052133;28;20033;-71
2022/04/24 03:03:52;;;;;;;7.50;5.10;;;;;;;6.77;88.29;100703.75;5052201;28;20444;-70
2022/04/24 03:06:18;;;;;;;8.00;5.40;;;;;;;6.74;88.70;100695.94;5051395;28;20033;-72
2022/04/24 03:08:44;;;;;;;9.40;4.97;;;;;;;6.73;87.86;100705.63;5052146;28;20032;-72
2022/04/24 03:11:10;;;;;;;8.50;5.00;;;;;;;6.72;88.33;100708.28;5051673;28;20077;-72
2022/04/24 03:13:35;;;;;;;9.98;5.70;;;;;;;6.71;88.21;100703.94;5051520;28;20062;-71
2022/04/24 03:16:01;;;;;;;7.50;5.03;;;;;;;6.68;88.24;100706.66;5051671;28;20059;-72
2022/04/24 03:18:27;;;;;;;10.25;5.50;;;;;;;6.68;88.81;100706.66;5045517;28;20032;-71
2022/04/24 03:20:52;;;;;;;9.40;5.65;;;;;;;6.66;88.59;100704.94;5051617;28;20047;-71
2022/04/24 03:23:18;;;;;;;9.70;5.45;;;;;;;6.65;88.36;100707.63;5051474;28;20040;-72
2022/04/24 03:25:43;;;;;;;7.07;4.57;;;;;;;6.62;89.18;100705.97;5052024;28;20441;-72
2022/04/24 03:28:09;;;;;;;8.25;4.95;;;;;;;6.61;88.26;100717.41;5050436;28;20468;-71
2022/04/24 03:30:35;;;;;;;8.73;5.55;;;;;;;6.58;89.05;100716.63;5050249;28;20201;-72
2022/04/24 03:33:01;;;;;;;8.68;5.45;;;;;;;6.57;89.63;100710.50;5045686;28;20383;-72
2022/04/24 03:35:27;;;;;;;9.27;5.88;;;;;;;6.58;89.08;100712.22;5050902;28;20036;-69
2022/04/24 03:37:52;;;;;;;8.10;5.43;;;;;;;6.60;89.39;100712.19;5051302;28;20036;-72
2022/04/24 03:40:19;;;;;;;7.25;4.75;;;;;;;6.59;88.95;100713.94;5049921;28;20064;-72
2022/04/24 03:42:46;;;;;;;7.75;5.00;;;;;;;6.57;89.03;100715.75;5051374;28;20036;-72
2022/04/24 03:45:12;;;;;;;6.65;4.90;;;;;;;6.56;89.39;100714.03;5050675;28;20487;-72
2022/04/24 03:47:38;;;;;;;6.88;4.75;;;;;;;6.57;89.76;100710.50;5031663;28;20782;-73
2022/04/24 03:50:04;;;;;;;7.72;5.00;;;;;;;6.58;90.05;100712.22;5049316;28;20092;-72
2022/04/24 03:52:30;;;;;;;8.20;5.22;;;;;;;6.59;89.69;100710.47;5044859;28;20040;-71
2022/04/24 03:54:55;;;;;;;7.45;5.45;;;;;;;6.58;89.40;100712.22;5050269;28;20029;-71
2022/04/24 03:57:21;;;;;;;6.30;4.43;;;;;;;6.58;89.85;100712.22;5062051;28;20033;-71
2022/04/24 03:59:46;;;;;;;9.00;4.90;;;;;;;6.58;90.39;100714.00;5051083;28;21161;-71
2022/04/24 04:02:12;;;;;;;8.45;4.80;;;;;;;6.57;89.52;100713.13;5050688;28;20024;-72
2022/04/24 04:04:37;;;;;;;10.13;5.40;;;;;;;6.55;89.08;100712.31;5051213;28;20531;-72
2022/04/24 04:07:03;;;;;;;7.93;4.88;;;;;;;6.54;89.43;100715.84;5033806;28;20032;-71
2022/04/24 04:09:30;;;;;;;8.27;5.22;;;;;;;6.51;89.66;100713.31;5048864;28;20098;-70
2022/04/24 04:11:55;;;;;;;9.75;5.40;;;;;;;6.51;88.99;100710.69;5049720;28;20036;-71
2022/04/24 04:14:24;;;;;;;7.55;4.55;;;;;;;6.49;89.08;100709.88;5048769;28;20041;-71
2022/04/24 04:16:50;;;;;;;9.43;5.25;;;;;;;6.47;89.07;100714.31;5048951;28;20133;-70
2022/04/24 04:19:16;;;;;;;7.57;4.68;;;;;;;6.45;90.40;100716.13;5065950;28;20495;-72
2022/04/24 04:21:43;;;;;;;8.10;5.13;;;;;;;6.44;89.43;100714.41;5048268;28;20024;-70
2022/04/24 04:24:09;;;;;;;8.07;5.10;;;;;;;6.43;89.78;100724.06;5049037;28;20037;-73
2022/04/24 04:26:35;;;;;;;6.85;4.45;;;;;;;6.42;89.63;100721.50;5049818;28;20032;-70
2022/04/24 04:29:00;;;;;;;7.20;4.80;;;;;;;6.38;89.18;100726.81;5050709;28;20079;-70
2022/04/24 04:31:26;;;;;;;9.63;5.40;;;;;;;6.37;90.27;100722.47;5048896;28;20437;-72
2022/04/24 04:33:51;;;;;;;8.63;5.18;;;;;;;6.35;89.99;100726.94;5050477;28;20086;-70
2022/04/24 04:36:17;;;;;;;7.70;4.80;;;;;;;6.35;89.85;100734.81;5050288;28;20386;-71
2022/04/24 04:38:43;;;;;;;6.30;4.72;;;;;;;6.37;90.80;100734.75;5066229;28;20314;-72
2022/04/24 04:41:08;;;;;;;8.48;4.80;;;;;;;6.38;91.18;100718.09;5033624;28;20487;-72
2022/04/24 04:43:34;;;;;;;8.82;5.00;;;;;;;6.38;90.67;100725.97;5050373;28;20032;-72
2022/04/24 04:46:00;;;;;;;7.82;4.95;;;;;;;6.37;90.37;100729.50;5052118;28;21521;-71
2022/04/24 04:48:26;;;;;;;8.15;4.75;;;;;;;6.38;90.90;100734.72;5054283;28;20041;-70
2022/04/24 04:50:52;;;;;;;6.47;4.78;;;;;;;6.37;91.37;100735.63;5036433;28;20108;-71
2022/04/24 04:53:17;;;;;;;7.03;4.75;;;;;;;6.36;90.42;100739.16;5048202;28;20056;-70
2022/04/24 04:55:43;;;;;;;6.63;4.60;;;;;;;6.36;90.57;100740.91;5054504;28;20103;-71
2022/04/24 04:58:09;;;;;;;7.85;4.43;;;;;;;6.36;91.38;100731.28;5069728;28;20633;-72
2022/04/24 05:00:35;;;;;;;8.90;4.65;;;;;;;6.38;91.73;100734.72;5054501;28;20044;-72
2022/04/24 05:03:00;;;;;;;8.32;4.80;;;;;;;6.42;91.37;100753.06;5054209;28;20609;-71
2022/04/24 05:05:25;;;;;;;6.80;4.60;;;;;;;6.43;91.62;100750.34;5054268;28;20402;-71
2022/04/24 05:07:54;;;;;;;8.77;4.47;;;;;;;6.45;90.86;100745.06;5054037;28;20406;-72
2022/04/24 05:10:19;;;;;;;7.60;4.75;;;;;;;6.48;91.03;100753.72;5054269;28;20036;-70
2022/04/24 05:12:45;;;;;;;8.65;4.88;;;;;;;6.51;91.05;100752.75;5054009;28;20029;-71
2022/04/24 05:15:13;;;;;;;8.15;4.35;;;;;;;6.51;91.54;100747.50;5053306;28;20179;-71
2022/04/24 05:17:39;;;;;;;7.75;4.57;;;;;;;6.55;91.28;100753.53;5053037;28;20035;-71
2022/04/24 05:20:06;;;;;;;7.38;4.47;;;;;;;6.57;91.00;100754.34;5054608;28;20029;-71
2022/04/24 05:22:32;;;;;;;8.35;4.93;;;;;;;6.61;90.90;100751.59;5054309;28;20032;-72
2022/04/24 05:24:57;;;;;;;7.78;4.55;;;;;;;6.69;90.66;100763.66;5054184;28;20603;-70
2022/04/24 05:27:23;;;;;;;8.35;4.60;;;;;;;6.74;90.96;100759.09;5054145;28;20090;-71
2022/04/24 05:29:48;;;;;;;6.43;4.45;;;;;;;6.78;91.47;100763.34;5053886;28;20119;-72
2022/04/24 05:32:15;;;;;;;8.25;4.57;;;;;;;6.83;90.73;100758.81;5052448;28;20028;-70
2022/04/24 05:34:40;;;;;;;8.35;4.63;;;;;;;6.87;90.98;100770.13;5053495;28;20047;-71
2022/04/24 05:37:06;;;;;;;6.85;4.40;;;;;;;6.91;90.66;100762.06;5052044;28;20033;-70
2022/04/24 05:39:32;;;;;;;9.73;4.55;;;;;;;6.96;91.09;100764.56;5053856;28;20040;-70
2022/04/24 05:41:58;;;;;;;7.35;4.95;;;;;;;6.98;90.38;100761.88;5052055;28;20946;-71
2022/04/24 05:44:23;;;;;;;10.35;5.13;;;;;;;7.03;90.05;100767.88;5051972;28;20470;-72
2022/04/24 05:46:49;;;;;;;6.95;4.50;;;;;;;7.06;89.90;100768.63;5047466;28;20024;-71
2022/04/24 05:49:14;;;;;;;8.45;3.95;;;;;;;7.13;89.80;100761.38;5051481;28;20028;-71
2022/04/24 05:51:40;;;;;;;6.57;4.70;;;;;;;7.19;89.79;100766.44;5053695;28;20024;-73
2022/04/24 05:54:05;;;;;;;7.05;4.57;;;;;;;7.26;89.54;100774.16;5051920;28;20429;-70
2022/04/24 05:56:31;;;;;;;8.98;4.35;;;;;;;7.32;89.54;100771.31;5052960;28;20067;-70
2022/04/24 05:58:56;;;;;;;7.50;4.45;;;;;;;7.38;90.04;100775.50;5052094;28;20035;-70
2022/04/24 06:01:22;;;;;;;7.05;4.28;;;;;;;7.44;89.45;100770.91;5054030;28;20037;-72
2022/04/24 06:03:48;;;;;;;10.00;4.80;;;;;;;7.52;89.29;100773.28;5053152;28;20032;-70
2022/04/24 06:06:14;;;;;;;8.05;4.40;;;;;;;7.61;89.56;100769.47;5053119;28;20463;-72
2022/04/24 06:08:39;;;;;;;6.53;4.63;;;;;;;7.74;89.08;100773.41;5051511;28;20043;-71
2022/04/24 06:11:05;;;;;;;7.50;4.55;;;;;;;7.93;88.65;100770.13;5034791;28;20196;-71
2022/04/24 06:13:30;;;;;;;8.07;4.68;;;;;;;8.08;87.65;100778.41;5052889;28;20040;-72
2022/04/24 06:15:57;;;;;;;8.10;5.10;;;;;;;8.19;87.15;100778.00;5035575;28;20111;-72
2022/04/24 06:18:29;;;;;;;7.78;4.93;;;;;;;8.31;87.90;100771.41;5035069;28;20543;-70
2022/04/24 06:20:55;;;;;;;8.50;4.38;;;;;;;8.42;86.78;100772.75;5051491;28;20111;-71
2022/04/24 06:23:21;;;;;;;9.98;5.30;;;;;;;8.52;86.50;100775.06;5052859;28;20042;-71
2022/04/24 06:25:46;;;;;;;8.82;4.80;;;;;;;8.59;85.29;100780.97;5050831;28;20167;-71
2022/04/24 06:28:12;;;;;;;8.40;4.90;;;;;;;8.64;85.29;100793.09;5052709;28;20028;-71
2022/04/24 06:30:41;;;;;;;9.75;5.40;;;;;;;8.74;85.56;100783.03;5050355;28;21410;-71
2022/04/24 06:33:08;;;;;;;10.38;5.28;;;;;;;8.88;85.68;100784.28;5051326;28;20115;-71
2022/04/24 06:35:33;;;;;;;7.75;4.65;;;;;;;9.01;83.90;100777.59;5051858;28;20040;-69
2022/04/24 06:37:59;;;;;;;8.18;5.00;;;;;;;9.09;84.71;100774.63;5067953;28;20499;-72
2022/04/24 06:40:25;;;;;;;6.57;4.03;;;;;;;9.23;83.72;100774.06;5052710;28;20479;-71
2022/04/24 06:43:01;;;;;;;7.25;4.90;;;;;;;9.34;83.31;100785.06;5034404;28;20032;-71
2022/04/24 06:45:32;;;;;;;9.52;4.47;;;;;;;9.41;81.25;100784.81;5051345;28;20485;-73
2022/04/24 06:48:06;;;;;;;8.68;5.03;;;;;;;9.50;82.43;100795.84;5034083;28;20585;-72
2022/04/24 06:50:33;;;;;;;7.45;4.40;;;;;;;9.58;81.58;100787.59;5051962;28;20036;-71
2022/04/24 06:53:01;;;;;;;6.97;4.00;;;;;;;9.65;80.82;100788.22;5050790;28;20037;-71
2022/04/24 06:55:30;;;;;;;6.45;4.40;;;;;;;9.69;81.34;100789.78;5051895;28;20046;-71
2022/04/24 06:57:57;;;;;;;6.30;4.18;;;;;;;9.74;80.33;100793.09;5053025;28;20093;-71
2022/04/24 07:00:23;;;;;;;6.45;4.28;;;;;;;9.79;80.46;100782.31;5050907;28;20028;-72
2022/04/24 07:02:50;;;;;;;6.85;4.30;;;;;;;9.90;79.66;100788.00;5052125;28;20383;-72
2022/04/24 07:05:16;;;;;;;7.57;4.55;;;;;;;10.00;80.00;100790.25;5052211;28;20601;-72
2022/04/24 07:07:42;;;;;;;7.40;4.00;;;;;;;10.09;79.71;100787.22;5051812;28;20082;-71
2022/04/24 07:10:11;;;;;;;5.20;3.90;;;;;;;10.13;78.16;100786.13;5051166;28;20052;-71
2022/04/24 07:12:52;;;;;;;9.48;3.72;;;;;;;10.17;79.05;100792.13;5050273;28;20032;-71
2022/04/24 07:15:19;;;;;;;5.25;3.58;;;;;;;10.18;77.87;100780.63;5050292;28;20043;-71
2022/04/24 07:17:46;;;;;;;5.97;3.22;;;;;;;10.21;78.89;100788.44;5051214;28;20089;-71
2022/04/24 07:20:12;;;;;;;6.97;3.50;;;;;;;10.28;77.67;100791.66;5062296;28;20105;-72
2022/04/24 07:22:54;;;;;;;4.65;3.05;;;;;;;10.31;76.07;100800.31;5050004;28;20081;-71
2022/04/24 07:25:25;;;;;;;6.75;3.28;;;;;;;10.29;75.71;100793.38;5050688;28;20060;-69
2022/04/24 07:27:52;;;;;;;3.88;2.70;;;;;;;10.24;75.54;100795.38;5050264;28;20020;-71
2022/04/24 07:30:18;;;;;;;4.47;2.63;;;;;;;10.18;74.74;100805.31;5051282;28;20609;-70
2022/04/24 07:32:46;;;;;;;3.85;2.40;;;;;;;10.18;75.62;100805.31;5051048;28;20082;-70
2022/04/24 07:35:33;;;;;;;4.93;2.88;;;;;;;10.23;74.79;100804.25;5049807;28;20091;-71
2022/04/24 07:37:58;;;;;;;4.07;2.30;;;;;;;10.31;75.71;100807.41;5050833;28;20076;-72
2022/04/24 07:40:27;;;;;;;6.78;2.80;;;;;;;10.39;74.89;100807.91;5049712;28;20139;-71
2022/04/24 07:42:56;;;;;;;4.93;2.17;;;;;;;10.50;74.98;100802.16;5050290;28;20090;-71
2022/04/24 07:45:27;;;;;;;3.80;2.33;;;;;;;10.59;73.80;100798.25;5051173;28;20034;-72
2022/04/24 07:47:54;;;;;;;4.22;2.63;;;;;;;10.71;74.46;100802.09;5013841;28;20542;-71
2022/04/24 07:50:21;;;;;;;3.35;1.90;;;;;;;10.81;72.91;100789.28;5050121;28;20105;-72
2022/04/24 07:52:48;;;;;;;3.72;2.35;;;;;;;10.86;69.36;100790.78;5045216;28;20028;-70
2022/04/24 07:55:17;;;;;;;2.50;1.73;;;;;;;10.89;71.13;100792.44;5049111;28;20342;-72
2022/04/24 07:57:46;;;;;;;1.73;1.60;;;;;;;10.99;69.40;100804.31;5066507;28;20471;-71
2022/04/24 08:00:13;;;;;;;2.53;1.52;;;;;;;11.08;68.68;100796.84;5050986;28;20036;-72
2022/04/24 08:02:49;;;;;;;3.17;1.70;;;;;;;11.27;69.04;100791.50;5050666;28;20040;-73
2022/04/24 08:05:29;;;;;;;2.55;1.52;;;;;;;11.45;66.98;100800.34;5051374;28;20152;-72
2022/04/24 08:07:56;;;;;;;3.20;1.58;;;;;;;11.56;67.80;100802.47;5050656;28;20055;-71
2022/04/24 08:10:23;;;;;;;2.38;1.60;;;;;;;11.63;66.06;100789.75;5048628;28;20555;-72
2022/04/24 08:12:49;;;;;;;1.77;1.45;;;;;;;11.73;66.48;100793.66;5066041;28;20036;-72
2022/04/24 08:15:15;;;;;;;1.75;1.27;;;;;;;11.89;66.48;100792.84;5032951;28;20967;-72
2022/04/24 08:17:41;;;;;;;2.55;1.80;;;;;;;12.01;65.64;100786.91;5031442;28;20094;-71
2022/04/24 08:20:08;;;;;;;2.45;1.40;;;;;;;12.18;66.84;100794.03;5049073;28;20033;-71
2022/04/24 08:22:40;;;;;;;1.40;1.30;;;;;;;12.24;62.40;100784.88;5061072;28;20117;-72
2022/04/24 08:25:07;;;;;;;2.13;1.40;;;;;;;12.30;63.45;100786.31;5051223;28;21081;-71
2022/04/24 08:27:33;;;;;;;1.58;1.20;;;;;;;12.40;64.27;100789.34;5049034;28;20028;-71
2022/04/24 08:29:59;;;;;;;2.20;1.30;;;;;;;12.46;62.24;100789.00;5049254;28;20604;-70
2022/04/24 08:32:25;;;;;;;2.72;1.42;;;;;;;12.51;63.05;100784.31;5049253;28;20024;-71
2022/04/24 08:34:51;;;;;;;1.58;1.33;;;;;;;12.63;61.94;100774.81;5048794;28;20032;-72
2022/04/24 08:37:16;;;;;;;1.33;1.02;;;;;;;12.76;62.70;100796.25;5050637;28;20058;-70
2022/04/24 08:39:42;;;;;;;2.20;1.35;;;;;;;12.86;61.32;100793.94;5050617;28;20070;-71
2022/04/24 08:42:11;;;;;;;2.38;1.30;;;;;;;12.88;60.12;100792.91;5049265;28;20028;-70
2022/04/24 08:44:37;;;;;;;2.35;1.42;;;;;;;12.86;59.88;100789.47;5050287;28;20343;-72
2022/04/24 08:47:03;;;;;;;1.85;1.48;;;;;;;12.86;61.96;100794.78;5050549;28;20036;-71
2022/04/24 08:49:31;;;;;;;2.28;1.45;;;;;;;13.01;60.79;100793.06;5065458;28;20033;-73
2022/04/24 08:51:59;;;;;;;2.00;1.58;;;;;;;13.10;61.97;100797.00;5050539;28;20415;-72
2022/04/24 08:54:27;;;;;;;1.48;1.38;;;;;;;13.10;62.13;100797.00;5048277;28;20035;-73
2022/04/24 08:56:52;;;;;;;3.42;1.40;;;;;;;13.21;61.47;100795.53;5060869;28;20086;-74
2022/04/24 08:59:18;;;;;;;3.00;1.42;;;;;;;13.34;61.03;100791.22;5048520;28;20546;-72
2022/04/24 09:01:44;;;;;;;2.58;1.55;;;;;;;13.43;61.20;100801.34;5050055;28;20342;-72
2022/04/24 09:04:10;;;;;;;2.85;1.60;;;;;;;13.45;60.24;100801.22;5050342;28;20029;-73
2022/04/24 09:06:36;;;;;;;4.68;1.48;;;;;;;13.40;60.16;100804.16;5050005;28;20036;-73
2022/04/24 09:09:05;;;;;;;1.88;1.77;;;;;;;13.46;60.27;100800.34;5048639;28;20356;-71
2022/04/24 09:11:32;;;;;;;3.45;1.58;;;;;;;13.54;59.83;100805.19;5049899;28;20148;-72
2022/04/24 09:16:47;;;;;;;2.72;1.65;;;;;;;13.57;60.01;100802.38;5050202;28;20033;-72
2022/04/24 09:19:22;;;;;;;4.03;1.60;;;;;;;13.68;60.06;100807.88;5049922;28;20569;-73
2022/04/24 09:21:49;;;;;;;1.67;1.20;;;;;;;13.70;59.64;100805.16;5048665;28;21553;-71
2022/04/24 09:24:15;;;;;;;1.73;1.48;;;;;;;13.78;61.24;100804.69;5048833;28;20650;-74
2022/04/24 09:26:54;;;;;;;1.45;1.27;;;;;;;13.83;58.40;100808.78;5049737;28;20044;-71
2022/04/24 09:29:23;;;;;;;3.78;1.30;;;;;;;13.91;60.21;100810.13;5050127;28;20388;-73
2022/04/24 09:31:49;;;;;;;1.80;1.40;;;;;;;13.93;59.78;100806.44;5050037;28;20067;-73
2022/04/24 09:34:17;;;;;;;1.52;1.33;;;;;;;13.91;59.11;100810.13;5052055;28;20033;-71
2022/04/24 09:36:46;;;;;;;1.55;1.20;;;;;;;13.84;57.38;100801.69;5052113;28;20472;-69
2022/04/24 09:39:12;;;;;;;1.63;1.40;;;;;;;13.80;59.51;100816.09;5064126;28;20570;-71
2022/04/24 09:41:39;;;;;;;1.50;1.40;;;;;;;13.80;59.53;100806.31;5051125;28;20036;-71
2022/04/24 09:44:15;;;;;;;4.18;1.92;;;;;;;13.90;58.54;100811.91;5036218;28;20037;-72
2022/04/24 09:46:40;;;;;;;2.35;1.63;;;;;;;13.98;59.19;100814.13;5052391;28;20048;-69
2022/04/24 09:49:09;;;;;;;3.67;1.50;;;;;;;14.03;58.25;100816.50;5052702;28;20138;-71
2022/04/24 09:51:43;;;;;;;1.73;1.45;;;;;;;13.96;57.63;100808.91;5053006;28;20114;-71
2022/04/24 09:54:09;;;;;;;1.50;1.40;;;;;;;14.02;57.15;100821.00;5051805;28;20435;-72
2022/04/24 09:56:35;;;;;;;2.95;1.60;;;;;;;14.02;57.66;100821.00;5053412;28;20036;-71
2022/04/24 09:59:01;;;;;;;3.15;1.30;;;;;;;14.06;57.94;100819.00;5053351;28;20667;-70
2022/04/24 10:01:27;;;;;;;3.60;1.95;;;;;;;14.08;58.73;100820.63;5052470;28;20115;-71
2022/04/24 10:03:53;;;;;;;4.03;1.80;;;;;;;14.07;58.68;100820.72;5051698;28;20068;-74
2022/04/24 10:06:20;;;;;;;2.53;1.70;;;;;;;13.98;58.13;100814.13;5051676;28;20613;-73
2022/04/24 10:08:45;;;;;;;2.20;1.77;;;;;;;13.94;58.61;100817.94;5063953;28;20525;-72
2022/04/24 10:11:11;;;;;;;5.35;2.00;;;;;;;13.92;58.93;100823.34;5051846;28;20036;-72
2022/04/24 10:13:41;;;;;;;2.30;1.42;;;;;;;13.89;58.78;100820.03;5051582;28;20124;-71
2022/04/24 10:16:29;;;;;;;2.97;1.65;;;;;;;13.84;58.95;100820.31;5051392;28;20036;-72
2022/04/24 10:18:57;;;;;;;2.28;1.70;;;;;;;13.88;59.51;100821.81;5053532;28;20113;-73
2022/04/24 10:21:51;;;;;;;2.50;1.77;;;;;;;13.77;58.74;100817.13;5068186;28;20044;-72
2022/04/24 10:24:16;;;;;;;2.75;1.67;;;;;;;13.70;58.09;100829.97;5047035;28;20565;-75
2022/04/24 10:26:52;;;;;;;3.22;1.65;;;;;;;13.58;58.29;100820.03;5051480;28;20100;-72
2022/04/24 10:29:18;;;;;;;1.58;1.48;;;;;;;13.46;57.26;100826.06;5030056;28;20135;-72
2022/04/24 10:31:45;;;;;;;2.50;1.70;;;;;;;13.40;57.03;100825.44;5053458;28;20435;-74
2022/04/24 10:34:13;;;;;;;1.65;1.52;;;;;;;13.42;57.56;100831.50;5029786;28;20226;-73
2022/04/24 10:36:54;;;;;;;2.25;1.60;;;;;;;13.49;58.28;100824.09;5052217;28;20383;-73
2022/04/24 10:39:22;;;;;;;3.13;1.80;;;;;;;13.41;59.89;100824.47;5052391;28;20512;-72
2022/04/24 10:41:56;;;;;;;4.00;1.88;;;;;;;13.40;60.70;100819.28;5051504;28;20506;-73
2022/04/24 10:44:22;;;;;;;4.28;2.05;;;;;;;13.34;61.19;100825.78;5051293;28;20033;-73
2022/04/24 10:46:48;;;;;;;4.03;1.90;;;;;;;13.31;61.60;100821.50;5029166;28;20475;-76
2022/04/24 10:49:16;;;;;;;3.15;2.15;;;;;;;13.24;62.27;100832.59;5050857;28;20507;-73
2022/04/24 10:51:44;;;;;;;3.13;1.90;;;;;;;13.20;63.40;100825.72;5051075;28;20032;-72
2022/04/24 10:54:13;;;;;;;2.25;1.77;;;;;;;13.23;63.33;100820.25;5052036;28;20041;-73
2022/04/24 10:56:42;;;;;;;4.90;2.10;;;;;;;13.23;63.99;100822.91;5051326;28;20151;-74
2022/04/24 10:59:14;;;;;;;3.47;2.13;;;;;;;13.18;63.28;100826.66;5034183;28;20522;-72
2022/04/24 11:01:48;;;;;;;3.80;2.22;;;;;;;13.07;63.85;100818.44;5052222;28;21988;-73
2022/04/24 11:04:14;;;;;;;3.95;1.98;;;;;;;13.07;64.82;100845.00;5052330;28;20058;-72
2022/04/24 11:07:02;;;;;;;5.50;2.20;;;;;;;13.04;63.80;100823.94;5033311;28;20181;-72
2022/04/24 11:09:33;;;;;;;3.47;2.13;;;;;;;13.04;64.77;100837.22;5051414;28;20035;-73
2022/04/24 11:12:01;;;;;;;2.83;2.15;;;;;;;13.00;64.04;100812.63;5049818;28;20063;-72
2022/04/24 11:14:28;;;;;;;5.00;2.00;;;;;;;13.03;64.92;100827.53;5051156;28;20751;-72
2022/04/24 11:16:57;;;;;;;3.35;1.92;;;;;;;13.09;65.16;100821.88;5050757;28;20360;-72
2022/04/24 11:19:30;;;;;;;3.38;1.88;;;;;;;13.09;64.41;100811.25;5050180;28;20056;-73
2022/04/24 11:22:16;;;;;;;2.53;2.00;;;;;;;13.10;64.56;100828.91;5051002;28;20711;-72
2022/04/24 11:24:41;;;;;;;3.20;2.00;;;;;;;13.13;64.18;100834.03;5032835;28;20033;-73
2022/04/24 11:27:12;;;;;;;4.25;1.85;;;;;;;13.15;63.61;100821.53;5049741;28;20047;-72
2022/04/24 11:29:38;;;;;;;3.33;2.03;;;;;;;13.15;63.82;100832.16;5051644;28;20440;-72
2022/04/24 11:32:08;;;;;;;2.88;1.92;;;;;;;13.06;65.18;100830.00;5050309;28;20543;-76